createdAt,value
2022-08-20T00:01:38.325Z,2.80
2022-08-20T00:04:05.259Z,2.70
2022-08-20T00:06:34.434Z,2.93
2022-08-20T00:09:01.235Z,2.90
2022-08-20T00:11:29.078Z,2.63
2022-08-20T00:14:00.828Z,2.53
2022-08-20T00:16:36.513Z,2.37
2022-08-20T00:19:07.575Z,2.43
2022-08-20T00:21:36.503Z,2.60
2022-08-20T00:24:04.822Z,2.50
2022-08-20T00:26:31.703Z,2.43
2022-08-20T00:28:58.579Z,2.30
2022-08-20T00:31:25.980Z,2.20
2022-08-20T00:33:53.735Z,2.10
2022-08-20T00:36:22.449Z,2.30
2022-08-20T00:39:00.573Z,2.03
2022-08-20T00:41:29.257Z,1.83
2022-08-20T00:44:18.541Z,1.87
2022-08-20T00:46:46.672Z,1.83
2022-08-20T00:49:22.806Z,2.20
2022-08-20T00:52:04.594Z,2.00
2022-08-20T00:54:43.925Z,1.80
2022-08-20T00:57:28.895Z,1.40
2022-08-20T01:00:33.450Z,1.60
2022-08-20T01:03:01.616Z,1.20
2022-08-20T01:05:29.827Z,1.40
2022-08-20T01:07:58.167Z,1.83
2022-08-20T01:10:32.133Z,1.20
2022-08-20T01:12:59.908Z,1.43
2022-08-20T01:15:31.831Z,1.10
2022-08-20T01:18:00.975Z,1.13
2022-08-20T01:20:37.950Z,0.97
2022-08-20T01:23:35.561Z,1.40
2022-08-20T01:26:30.915Z,0.97
2022-08-20T01:29:14.009Z,0.70
2022-08-20T01:31:42.965Z,1.00
2022-08-20T01:34:15.544Z,1.20
2022-08-20T01:36:54.240Z,0.70
2022-08-20T01:39:35.043Z,1.00
2022-08-20T01:42:59.013Z,0.97
2022-08-20T01:45:29.231Z,1.20
2022-08-20T01:47:58.885Z,0.87
2022-08-20T01:50:30.784Z,0.90
2022-08-20T01:53:21.283Z,1.00
2022-08-20T01:55:48.112Z,1.57
2022-08-20T01:58:15.060Z,1.00
2022-08-20T02:00:42.157Z,0.90
2022-08-20T02:03:09.391Z,0.83
2022-08-20T02:05:36.300Z,1.00
2022-08-20T02:08:04.717Z,1.00
2022-08-20T02:10:32.149Z,0.90
2022-08-20T02:13:02.757Z,0.97
2022-08-20T02:15:34.844Z,1.20
2022-08-20T02:18:11.915Z,1.00
2022-08-20T02:20:40.491Z,0.80
2022-08-20T02:23:09.048Z,1.03
2022-08-20T02:25:40.228Z,0.90
2022-08-20T02:28:11.410Z,1.20
2022-08-20T02:30:47.297Z,1.17
2022-08-20T02:33:18.136Z,0.83
2022-08-20T02:35:49.121Z,0.97
2022-08-20T02:38:16.719Z,0.93
2022-08-20T02:40:45.863Z,1.00
2022-08-20T02:43:13.072Z,1.10
2022-08-20T02:45:43.818Z,1.20
2022-08-20T02:48:20.769Z,1.23
2022-08-20T02:50:52.760Z,1.10
2022-08-20T02:53:20.580Z,1.00
2022-08-20T02:55:47.391Z,1.13
2022-08-20T02:58:14.455Z,1.30
2022-08-20T03:00:41.751Z,1.57
2022-08-20T03:03:11.550Z,1.13
2022-08-20T03:05:41.926Z,0.90
2022-08-20T03:08:12.171Z,1.20
2022-08-20T03:10:41.466Z,1.10
2022-08-20T03:13:12.663Z,0.90
2022-08-20T03:15:59.426Z,1.30
2022-08-20T03:18:32.018Z,1.20
2022-08-20T03:20:59.331Z,1.40
2022-08-20T03:23:26.549Z,1.60
2022-08-20T03:25:53.338Z,1.40
2022-08-20T03:28:20.376Z,1.30
2022-08-20T03:30:48.627Z,1.20
2022-08-20T03:33:16.349Z,1.23
2022-08-20T03:35:43.418Z,1.53
2022-08-20T03:38:13.141Z,1.37
2022-08-20T03:40:40.659Z,1.53
2022-08-20T03:43:10.395Z,1.10
2022-08-20T03:45:40.464Z,1.40
2022-08-20T03:48:11.364Z,1.40
2022-08-20T03:50:41.716Z,1.37
2022-08-20T03:53:13.133Z,1.87
2022-08-20T03:55:54.378Z,1.33
2022-08-20T03:58:29.922Z,1.77
2022-08-20T04:01:04.095Z,1.50
2022-08-20T04:03:31.015Z,1.60
2022-08-20T04:05:58.774Z,1.60
2022-08-20T04:08:29.621Z,1.70
2022-08-20T04:10:58.294Z,1.60
2022-08-20T04:13:28.199Z,1.77
2022-08-20T04:15:56.755Z,1.47
2022-08-20T04:18:25.737Z,1.70
2022-08-20T04:20:53.948Z,1.77
2022-08-20T04:23:22.357Z,1.63
2022-08-20T04:25:49.281Z,1.67
2022-08-20T04:28:30.031Z,1.77
2022-08-20T04:31:00.493Z,1.53
2022-08-20T04:33:33.824Z,1.70
2022-08-20T04:36:05.589Z,1.50
2022-08-20T04:38:50.596Z,1.70
2022-08-20T04:41:21.099Z,2.00
2022-08-20T04:43:55.817Z,1.63
2022-08-20T04:46:27.495Z,1.70
2022-08-20T04:48:56.368Z,1.67
2022-08-20T04:51:24.518Z,2.40
2022-08-20T04:53:54.286Z,1.60
2022-08-20T04:56:31.946Z,1.83
2022-08-20T04:59:01.571Z,1.90
2022-08-20T05:01:29.413Z,1.73
2022-08-20T05:03:58.224Z,1.60
2022-08-20T05:06:29.578Z,1.70
2022-08-20T05:08:59.428Z,2.17
2022-08-20T05:11:35.457Z,2.07
2022-08-20T05:14:09.008Z,2.20
2022-08-20T05:16:41.017Z,1.87
2022-08-20T05:19:11.908Z,1.80
2022-08-20T05:21:39.990Z,2.00
2022-08-20T05:24:07.969Z,1.87
2022-08-20T05:26:35.239Z,2.30
2022-08-20T05:29:04.849Z,2.10
2022-08-20T05:31:33.603Z,1.70
2022-08-20T05:34:09.758Z,1.80
2022-08-20T05:36:40.533Z,2.33
2022-08-20T05:39:08.876Z,2.00
2022-08-20T05:41:36.280Z,2.23
2022-08-20T05:44:04.267Z,2.30
2022-08-20T05:46:32.140Z,2.37
2022-08-20T05:49:01.599Z,2.30
2022-08-20T05:51:29.568Z,2.50
2022-08-20T05:53:58.263Z,2.30
2022-08-20T05:56:30.440Z,2.03
2022-08-20T05:59:01.437Z,2.07
2022-08-20T06:01:28.537Z,2.03
2022-08-20T06:04:15.579Z,1.90
2022-08-20T06:06:46.002Z,2.27
2022-08-20T06:09:27.945Z,1.73
2022-08-20T06:12:01.844Z,2.30
2022-08-20T06:14:29.160Z,2.33
2022-08-20T06:17:02.748Z,2.40
2022-08-20T06:19:32.506Z,2.20
2022-08-20T06:22:00.971Z,2.10
2022-08-20T06:24:28.034Z,2.23
2022-08-20T06:27:04.914Z,2.00
2022-08-20T06:29:33.540Z,2.07
2022-08-20T06:32:01.586Z,2.30
2022-08-20T06:34:30.815Z,1.90
2022-08-20T06:36:59.557Z,2.17
2022-08-20T06:39:30.960Z,2.60
2022-08-20T06:41:58.872Z,2.33
2022-08-20T06:44:25.972Z,2.50
2022-08-20T06:46:52.903Z,2.67
2022-08-20T06:49:19.738Z,2.57
2022-08-20T06:51:46.552Z,2.40
2022-08-20T06:54:18.790Z,2.13
2022-08-20T06:56:45.582Z,2.57
2022-08-20T06:59:12.390Z,2.37
2022-08-20T07:01:39.301Z,2.63
2022-08-20T07:04:08.378Z,2.63
2022-08-20T07:06:35.208Z,2.70
2022-08-20T07:09:02.135Z,2.43
2022-08-20T07:11:29.167Z,2.70
2022-08-20T07:13:58.307Z,2.77
2022-08-20T07:16:25.840Z,2.80
2022-08-20T07:18:52.786Z,3.03
2022-08-20T07:21:19.651Z,2.70
2022-08-20T07:23:48.854Z,2.60
2022-08-20T07:26:16.592Z,2.37
2022-08-20T07:28:43.489Z,2.90
2022-08-20T07:31:28.907Z,2.63
2022-08-20T07:33:58.563Z,2.70
2022-08-20T07:36:27.944Z,2.70
2022-08-20T07:38:55.085Z,2.80
2022-08-20T07:41:24.340Z,2.90
2022-08-20T07:43:51.221Z,2.47
2022-08-20T07:46:21.404Z,2.80
2022-08-20T07:48:51.241Z,2.90
2022-08-20T07:51:22.128Z,2.50
2022-08-20T07:53:51.630Z,2.77
2022-08-20T07:56:24.189Z,2.10
2022-08-20T07:58:55.402Z,2.40
2022-08-20T08:01:31.662Z,2.27
2022-08-20T08:04:00.035Z,2.57
2022-08-20T08:06:31.538Z,2.40
2022-08-20T08:09:13.227Z,2.47
2022-08-20T08:11:51.759Z,2.20
2022-08-20T08:14:26.858Z,2.47
2022-08-20T08:16:58.055Z,2.10
2022-08-20T08:19:37.735Z,2.40
2022-08-20T08:22:12.158Z,2.60
2022-08-20T08:24:41.552Z,2.57
2022-08-20T08:27:23.495Z,2.47
2022-08-20T08:29:50.388Z,2.20
2022-08-20T08:32:17.430Z,2.30
2022-08-20T08:34:48.109Z,2.70
2022-08-20T08:37:14.954Z,2.30
2022-08-20T08:39:42.295Z,2.37
2022-08-20T08:42:34.073Z,2.40
2022-08-20T08:45:04.547Z,2.20
2022-08-20T08:47:37.712Z,2.17
2022-08-20T08:50:38.575Z,1.50
2022-08-20T08:53:33.414Z,1.50
2022-08-20T08:56:01.664Z,1.70
2022-08-20T08:58:29.152Z,2.23
2022-08-20T09:00:57.745Z,2.27
2022-08-20T09:03:34.049Z,2.15
2022-08-20T09:06:03.633Z,2.28
2022-08-20T09:08:50.336Z,2.63
2022-08-20T09:11:22.407Z,3.53
2022-08-20T09:13:49.993Z,4.35
2022-08-20T09:16:16.840Z,4.00
2022-08-20T09:18:43.653Z,4.00
2022-08-20T09:21:10.860Z,3.38
2022-08-20T09:23:37.992Z,3.65
2022-08-20T09:26:05.111Z,3.80
2022-08-20T09:28:34.811Z,4.00
2022-08-20T09:31:03.127Z,3.88
2022-08-20T09:33:31.670Z,4.00
2022-08-20T09:35:58.559Z,3.22
2022-08-20T09:38:25.510Z,3.20
2022-08-20T09:40:52.343Z,2.60
2022-08-20T09:43:19.177Z,2.50
2022-08-20T09:45:46.012Z,2.00
2022-08-20T09:48:12.776Z,2.10
2022-08-20T09:50:47.547Z,2.28
2022-08-20T09:53:16.437Z,2.00
2022-08-20T09:55:51.305Z,2.25
2022-08-20T09:58:38.467Z,2.20
2022-08-20T10:01:15.424Z,2.20
2022-08-20T10:03:44.638Z,2.38
2022-08-20T10:06:14.617Z,2.05
2022-08-20T10:08:41.665Z,2.05
2022-08-20T10:11:08.763Z,2.05
2022-08-20T10:13:35.539Z,2.08
2022-08-20T10:16:02.545Z,2.30
2022-08-20T10:18:29.390Z,2.05
2022-08-20T10:20:56.208Z,2.15
2022-08-20T10:23:22.973Z,2.30
2022-08-20T10:25:49.807Z,2.20
2022-08-20T10:28:16.614Z,2.17
2022-08-20T10:30:45.041Z,2.40
2022-08-20T10:33:11.853Z,1.98
2022-08-20T10:35:38.694Z,2.10
2022-08-20T10:38:05.496Z,2.08
2022-08-20T10:40:32.324Z,2.20
2022-08-20T10:42:59.186Z,2.28
2022-08-20T10:45:26.018Z,2.42
2022-08-20T10:47:53.064Z,1.92
2022-08-20T10:50:20.168Z,1.70
2022-08-20T10:52:47.474Z,1.30
2022-08-20T10:55:15.128Z,1.38
2022-08-20T10:57:43.339Z,1.48
2022-08-20T11:00:14.881Z,1.10
2022-08-20T11:02:41.732Z,0.95
2022-08-20T11:05:09.488Z,1.00
2022-08-20T11:07:54.930Z,1.02
2022-08-20T11:10:28.859Z,1.27
2022-08-20T11:12:55.911Z,1.27
2022-08-20T11:15:23.388Z,1.70
2022-08-20T11:17:50.824Z,1.70
2022-08-20T11:20:21.165Z,1.50
2022-08-20T11:22:48.235Z,1.60
2022-08-20T11:25:15.284Z,1.20
2022-08-20T11:27:46.675Z,1.27
2022-08-20T11:30:23.611Z,1.63
2022-08-20T11:32:50.589Z,1.00
2022-08-20T11:35:41.716Z,1.20
2022-08-20T11:38:05.536Z,1.13
2022-08-20T11:40:32.492Z,1.10
2022-08-20T11:43:14.283Z,1.10
2022-08-20T11:45:43.449Z,1.40
2022-08-20T11:48:10.195Z,1.73
2022-08-20T11:50:37.070Z,1.60
2022-08-20T11:53:03.943Z,1.60
2022-08-20T11:55:31.107Z,1.50
2022-08-20T11:58:00.630Z,1.48
2022-08-20T12:00:33.375Z,1.20
2022-08-20T12:03:08.871Z,1.50
2022-08-20T12:05:38.348Z,1.55
2022-08-20T12:08:05.760Z,1.40
2022-08-20T12:10:33.261Z,1.60
2022-08-20T12:13:00.320Z,1.80
2022-08-20T12:15:29.666Z,2.00
2022-08-20T12:17:56.822Z,1.70
2022-08-20T12:20:25.145Z,1.25
2022-08-20T12:22:53.895Z,1.25
2022-08-20T12:25:20.796Z,1.08
2022-08-20T12:27:47.648Z,1.13
2022-08-20T12:30:22.743Z,0.80
2022-08-20T12:32:50.309Z,0.88
2022-08-20T12:35:19.245Z,0.90
2022-08-20T12:37:47.037Z,0.70
2022-08-20T12:40:31.764Z,0.90
2022-08-20T12:43:03.808Z,0.98
2022-08-20T12:45:33.171Z,0.70
2022-08-20T12:48:10.087Z,0.80
2022-08-20T12:50:39.859Z,0.90
2022-08-20T12:53:07.875Z,0.70
2022-08-20T12:55:35.471Z,0.98
2022-08-20T12:58:04.724Z,1.23
2022-08-20T13:00:46.509Z,0.93
2022-08-20T13:03:19.484Z,0.90
2022-08-20T13:05:47.573Z,1.48
2022-08-20T13:08:14.636Z,1.20
2022-08-20T13:10:45.522Z,1.08
2022-08-20T13:13:20.991Z,0.98
2022-08-20T13:15:50.508Z,0.90
2022-08-20T13:18:18.892Z,0.57
2022-08-20T13:20:46.022Z,0.73
2022-08-20T13:23:13.181Z,0.82
2022-08-20T13:25:40.087Z,0.60
2022-08-20T13:28:06.963Z,0.55
2022-08-20T13:30:38.494Z,0.57
2022-08-20T13:33:05.470Z,0.63
2022-08-20T13:35:32.421Z,0.60
2022-08-20T13:37:59.382Z,0.60
2022-08-20T13:40:26.614Z,0.55
2022-08-20T13:42:53.621Z,0.50
2022-08-20T13:45:20.687Z,0.47
2022-08-20T13:47:54.215Z,0.55
2022-08-20T13:50:27.086Z,0.55
2022-08-20T13:52:54.504Z,0.63
2022-08-20T13:55:26.774Z,0.60
2022-08-20T13:57:55.777Z,0.68
2022-08-20T14:00:31.854Z,0.70
2022-08-20T14:03:00.911Z,0.70
2022-08-20T14:05:29.240Z,0.68
2022-08-20T14:07:56.575Z,0.80
2022-08-20T14:10:31.177Z,0.70
2022-08-20T14:12:59.519Z,0.60
2022-08-20T14:15:26.453Z,0.57
2022-08-20T14:17:56.222Z,0.40
2022-08-20T14:20:29.240Z,0.77
2022-08-20T14:22:57.729Z,0.80
2022-08-20T14:25:26.586Z,0.73
2022-08-20T14:27:55.080Z,0.70
2022-08-20T14:30:30.515Z,0.70
2022-08-20T14:32:57.466Z,0.70
2022-08-20T14:35:24.702Z,0.73
2022-08-20T14:37:54.321Z,0.70
2022-08-20T14:40:24.159Z,0.70
2022-08-20T14:42:51.981Z,0.70
2022-08-20T14:45:20.293Z,0.60
2022-08-20T14:47:54.035Z,0.60
2022-08-20T14:50:34.699Z,0.40
2022-08-20T14:53:01.908Z,0.43
2022-08-20T14:55:35.820Z,0.30
2022-08-20T14:58:11.659Z,0.50
2022-08-20T15:00:39.648Z,0.40
2022-08-20T15:03:06.595Z,0.30
2022-08-20T15:05:34.734Z,0.30
2022-08-20T15:08:08.041Z,0.40
2022-08-20T15:10:37.176Z,0.22
2022-08-20T15:13:04.115Z,0.47
2022-08-20T15:15:30.956Z,0.30
2022-08-20T15:18:00.545Z,0.32
2022-08-20T15:20:31.379Z,0.30
2022-08-20T15:22:59.221Z,0.32
2022-08-20T15:25:36.856Z,0.50
2022-08-20T15:28:08.623Z,0.47
2022-08-20T15:30:39.047Z,0.52
2022-08-20T15:33:06.319Z,0.65
2022-08-20T15:35:33.428Z,0.80
2022-08-20T15:38:01.705Z,1.00
2022-08-20T15:40:32.400Z,0.90
2022-08-20T15:43:02.770Z,0.90
2022-08-20T15:45:31.341Z,0.80
2022-08-20T15:48:17.194Z,0.88
2022-08-20T15:51:27.515Z,0.75
2022-08-20T15:54:07.646Z,1.00
2022-08-20T15:56:50.302Z,1.08
2022-08-20T15:59:32.544Z,1.00
2022-08-20T16:02:45.080Z,1.13
2022-08-20T16:05:17.654Z,1.02
2022-08-20T16:08:06.048Z,1.00
2022-08-20T16:10:48.193Z,1.00
2022-08-20T16:13:49.203Z,0.98
2022-08-20T16:16:33.806Z,0.80
2022-08-20T16:19:01.867Z,0.63
2022-08-20T16:21:37.538Z,0.90
2022-08-20T16:24:07.920Z,0.88
2022-08-20T16:26:51.109Z,1.05
2022-08-20T16:29:26.603Z,0.80
2022-08-20T16:32:59.786Z,0.90
2022-08-20T16:35:42.013Z,0.88
2022-08-20T16:38:43.007Z,1.00
2022-08-20T16:41:34.667Z,0.70
2022-08-20T16:44:12.780Z,1.05
2022-08-20T16:47:14.697Z,0.90
2022-08-20T16:50:06.246Z,0.90
2022-08-20T16:52:33.144Z,1.02
2022-08-20T16:55:00.024Z,0.90
2022-08-20T16:57:28.562Z,0.88
2022-08-20T17:00:10.923Z,0.60
2022-08-20T17:02:53.530Z,0.82
2022-08-20T17:05:23.806Z,1.10
2022-08-20T17:08:01.071Z,0.95
2022-08-20T17:10:33.557Z,1.20
2022-08-20T17:13:23.807Z,1.15
2022-08-20T17:15:58.741Z,1.00
2022-08-20T17:18:29.813Z,0.98
2022-08-20T17:21:30.460Z,0.90
2022-08-20T17:24:02.665Z,1.13
2022-08-20T17:26:46.392Z,0.68
2022-08-20T17:29:27.319Z,1.00
2022-08-20T17:32:09.117Z,1.13
2022-08-20T17:34:53.665Z,1.08
2022-08-20T17:37:27.294Z,1.17
2022-08-20T17:40:17.294Z,1.27
2022-08-20T17:42:56.757Z,0.98
2022-08-20T17:45:34.186Z,0.88
2022-08-20T17:48:01.593Z,0.90
2022-08-20T17:50:40.771Z,1.10
2022-08-20T17:53:23.636Z,1.15
2022-08-20T17:55:58.706Z,0.90
2022-08-20T17:58:54.274Z,0.90
2022-08-20T18:01:23.641Z,1.00
2022-08-20T18:03:52.983Z,1.10
2022-08-20T18:07:04.698Z,0.82
2022-08-20T18:09:50.214Z,1.10
2022-08-20T18:12:37.111Z,1.10
2022-08-20T18:15:26.036Z,1.17
2022-08-20T18:18:30.422Z,1.33
2022-08-20T18:21:42.172Z,1.50
2022-08-20T18:24:17.478Z,1.00
2022-08-20T18:26:56.657Z,1.27
2022-08-20T18:29:31.517Z,1.05
2022-08-20T18:32:23.335Z,1.25
2022-08-20T18:34:51.147Z,1.20
2022-08-20T18:37:17.869Z,1.10
2022-08-20T18:39:48.546Z,1.20
2022-08-20T18:42:35.837Z,1.15
2022-08-20T18:45:05.020Z,1.17
2022-08-20T18:47:34.601Z,1.15
2022-08-20T18:50:15.705Z,1.10
2022-08-20T18:53:33.707Z,1.15
2022-08-20T18:56:14.060Z,1.08
2022-08-20T18:59:01.686Z,1.13
2022-08-20T19:01:31.837Z,1.27
2022-08-20T19:03:58.758Z,1.17
2022-08-20T19:06:55.514Z,1.20
2022-08-20T19:09:40.531Z,1.30
2022-08-20T19:12:32.418Z,1.10
2022-08-20T19:15:07.058Z,1.13
2022-08-20T19:17:52.897Z,1.20
2022-08-20T19:20:25.773Z,1.03
2022-08-20T19:22:59.148Z,1.03
2022-08-20T19:25:37.968Z,1.07
2022-08-20T19:28:21.148Z,1.33
2022-08-20T19:30:48.242Z,0.93
2022-08-20T19:33:25.307Z,1.27
2022-08-20T19:35:52.539Z,1.10
2022-08-20T19:38:20.908Z,1.07
2022-08-20T19:40:51.614Z,1.20
2022-08-20T19:43:44.620Z,1.00
2022-08-20T19:46:17.956Z,1.47
2022-08-20T19:49:19.210Z,1.20
2022-08-20T19:52:17.401Z,1.30
2022-08-20T19:54:53.316Z,1.10
2022-08-20T19:57:22.514Z,1.37
2022-08-20T20:00:12.130Z,1.20
2022-08-20T20:02:41.433Z,1.13
2022-08-20T20:05:10.367Z,1.50
2022-08-20T20:07:46.590Z,1.50
2022-08-20T20:10:36.245Z,1.60
2022-08-20T20:13:16.531Z,1.47
2022-08-20T20:15:44.106Z,1.67
2022-08-20T20:18:12.937Z,1.40
2022-08-20T20:20:57.642Z,1.30
2022-08-20T20:23:45.769Z,1.20
2022-08-20T20:26:19.869Z,1.13
2022-08-20T20:28:54.668Z,1.37
2022-08-20T20:31:31.257Z,1.10
2022-08-20T20:34:09.347Z,1.43
2022-08-20T20:36:42.785Z,1.30
2022-08-20T20:39:27.548Z,1.20
2022-08-20T20:41:59.289Z,1.33
2022-08-20T20:44:45.025Z,1.40
2022-08-20T20:47:35.886Z,1.30
2022-08-20T20:50:10.431Z,1.40
2022-08-20T20:52:49.663Z,1.20
2022-08-20T20:55:31.072Z,1.20
2022-08-20T20:57:59.839Z,1.27
2022-08-20T21:00:34.146Z,1.40
2022-08-20T21:03:03.813Z,1.23
2022-08-20T21:05:33.146Z,1.53
2022-08-20T21:08:05.273Z,1.40
2022-08-20T21:10:37.507Z,0.97
2022-08-20T21:13:08.061Z,1.30
2022-08-20T21:15:37.860Z,1.30
2022-08-20T21:18:09.046Z,1.33
2022-08-20T21:20:37.406Z,1.50
2022-08-20T21:23:05.353Z,1.20
2022-08-20T21:25:35.095Z,1.23
2022-08-20T21:28:03.581Z,1.13
2022-08-20T21:30:31.426Z,1.40
2022-08-20T21:32:58.412Z,1.40
2022-08-20T21:35:25.567Z,1.30
2022-08-20T21:37:52.633Z,1.40
2022-08-20T21:40:21.478Z,1.30
2022-08-20T21:42:49.390Z,1.30
2022-08-20T21:45:19.639Z,1.10
2022-08-20T21:47:48.667Z,1.20
2022-08-20T21:50:19.398Z,1.17
2022-08-20T21:52:59.101Z,1.40
2022-08-20T21:55:28.503Z,1.30
2022-08-20T21:57:55.591Z,1.00
2022-08-20T22:00:59.082Z,1.33
2022-08-20T22:03:32.926Z,1.20
2022-08-20T22:06:01.605Z,1.60
2022-08-20T22:08:28.775Z,1.47
2022-08-20T22:10:58.482Z,1.57
2022-08-20T22:13:32.999Z,1.40
2022-08-20T22:16:03.936Z,1.50
2022-08-20T22:18:31.236Z,1.50
2022-08-20T22:20:58.519Z,1.47
2022-08-20T22:23:25.828Z,1.30
2022-08-20T22:25:52.679Z,1.43
2022-08-20T22:28:19.966Z,1.40
2022-08-20T22:30:47.369Z,1.40
2022-08-20T22:33:22.000Z,1.50
2022-08-20T22:35:53.775Z,1.63
2022-08-20T22:38:21.908Z,1.90
2022-08-20T22:40:49.539Z,1.60
2022-08-20T22:43:17.259Z,1.77
2022-08-20T22:45:48.975Z,1.57
2022-08-20T22:48:19.086Z,1.20
2022-08-20T22:50:47.913Z,1.60
2022-08-20T22:53:16.222Z,1.40
2022-08-20T22:55:43.103Z,1.60
2022-08-20T22:58:10.610Z,1.77
2022-08-20T23:00:38.641Z,1.73
2022-08-20T23:03:07.168Z,1.50
2022-08-20T23:05:36.859Z,1.67
2022-08-20T23:08:06.676Z,1.60
2022-08-20T23:10:36.819Z,1.30
2022-08-20T23:13:05.159Z,1.60
2022-08-20T23:15:37.043Z,1.33
2022-08-20T23:18:15.798Z,1.30
2022-08-20T23:20:48.664Z,1.70
2022-08-20T23:23:15.519Z,1.57
2022-08-20T23:25:42.453Z,1.53
2022-08-20T23:28:09.961Z,1.53
2022-08-20T23:30:36.890Z,1.50
2022-08-20T23:33:04.072Z,1.67
2022-08-20T23:35:31.992Z,1.97
2022-08-20T23:38:00.374Z,1.77
2022-08-20T23:40:28.950Z,1.50
2022-08-20T23:42:57.654Z,1.80
2022-08-20T23:45:24.936Z,1.50
2022-08-20T23:47:51.951Z,1.57
2022-08-20T23:50:24.190Z,2.33
2022-08-20T23:52:52.317Z,2.10
2022-08-20T23:55:20.789Z,1.77
2022-08-20T23:57:47.577Z,1.80
